createdAt,value
2018-02-09T00:00:51.449Z,14.30
2018-02-09T00:03:18.614Z,14.30
2018-02-09T00:05:45.786Z,14.30
2018-02-09T00:08:13.754Z,14.30
2018-02-09T00:10:40.930Z,14.30
2018-02-09T00:13:08.870Z,14.30
2018-02-09T00:15:36.045Z,14.30
2018-02-09T00:18:03.986Z,14.40
2018-02-09T00:20:31.145Z,14.40
2018-02-09T00:22:58.314Z,14.40
2018-02-09T00:25:26.286Z,14.50
2018-02-09T00:27:54.221Z,14.50
2018-02-09T00:30:21.385Z,14.60
2018-02-09T00:32:48.586Z,14.60
2018-02-09T00:35:15.746Z,14.60
2018-02-09T00:37:42.976Z,14.60
2018-02-09T00:40:10.149Z,14.60
2018-02-09T00:42:37.354Z,14.60
2018-02-09T00:45:04.518Z,14.60
2018-02-09T00:47:32.489Z,14.60
2018-02-09T00:50:00.413Z,14.50
2018-02-09T00:52:27.581Z,14.50
2018-02-09T00:54:54.745Z,14.50
2018-02-09T00:57:21.910Z,14.50
2018-02-09T00:59:50.579Z,14.50
2018-02-09T01:02:17.747Z,14.50
2018-02-09T01:04:45.679Z,14.50
2018-02-09T01:07:12.846Z,14.50
2018-02-09T01:09:40.050Z,14.50
2018-02-09T01:12:07.221Z,14.50
2018-02-09T01:14:35.158Z,14.50
2018-02-09T01:17:02.410Z,14.50
2018-02-09T01:19:30.337Z,14.50
2018-02-09T01:21:57.555Z,14.50
2018-02-09T01:24:24.750Z,14.50
2018-02-09T01:26:51.919Z,14.50
2018-02-09T01:29:19.894Z,14.50
2018-02-09T01:31:47.099Z,14.40
2018-02-09T01:34:14.266Z,14.40
2018-02-09T01:36:41.471Z,14.40
2018-02-09T01:39:08.641Z,14.40
2018-02-09T01:41:36.713Z,14.40
2018-02-09T01:44:03.925Z,14.40
2018-02-09T01:46:31.898Z,14.30
2018-02-09T01:48:59.834Z,14.40
2018-02-09T01:51:27.002Z,14.30
2018-02-09T01:53:54.945Z,14.30
2018-02-09T01:56:22.254Z,14.30
2018-02-09T01:58:49.424Z,14.30
2018-02-09T02:01:17.507Z,14.30
2018-02-09T02:03:44.675Z,14.30
2018-02-09T02:06:11.899Z,14.30
2018-02-09T02:08:39.057Z,14.30
2018-02-09T02:11:06.226Z,14.30
2018-02-09T02:13:33.430Z,14.40
2018-02-09T02:16:01.361Z,14.40
2018-02-09T02:18:28.570Z,14.40
2018-02-09T02:20:55.741Z,14.40
2018-02-09T02:23:22.945Z,14.50
2018-02-09T02:25:50.876Z,14.60
2018-02-09T02:28:18.496Z,14.60
2018-02-09T02:30:45.663Z,14.60
2018-02-09T02:33:12.822Z,14.60
2018-02-09T02:35:39.989Z,14.60
2018-02-09T02:38:07.154Z,14.60
2018-02-09T02:40:34.323Z,14.60
2018-02-09T02:43:02.258Z,14.50
2018-02-09T02:45:29.430Z,14.60
2018-02-09T02:47:56.599Z,14.50
2018-02-09T02:50:24.529Z,14.50
2018-02-09T02:52:51.698Z,14.50
2018-02-09T02:55:18.866Z,14.50
2018-02-09T02:57:46.801Z,14.40
2018-02-09T03:00:13.973Z,14.40
2018-02-09T03:02:41.147Z,14.40
2018-02-09T03:05:09.078Z,14.40
2018-02-09T03:07:36.247Z,14.40
2018-02-09T03:10:03.416Z,14.40
2018-02-09T03:12:31.381Z,14.40
2018-02-09T03:14:58.547Z,14.30
2018-02-09T03:17:26.480Z,14.30
2018-02-09T03:19:53.646Z,14.30
2018-02-09T03:22:20.813Z,14.30
2018-02-09T03:24:48.750Z,14.30
2018-02-09T03:27:15.917Z,14.30
2018-02-09T03:29:43.077Z,14.30
2018-02-09T03:32:10.241Z,14.30
2018-02-09T03:34:38.181Z,14.30
2018-02-09T03:37:05.385Z,14.30
2018-02-09T03:39:32.551Z,14.30
2018-02-09T03:41:59.713Z,14.30
2018-02-09T03:44:26.883Z,14.30
2018-02-09T03:46:54.046Z,14.30
2018-02-09T03:49:21.211Z,14.30
2018-02-09T03:51:49.166Z,14.30
2018-02-09T03:54:16.381Z,14.30
2018-02-09T03:56:43.541Z,14.30
2018-02-09T03:59:10.705Z,14.30
2018-02-09T04:01:37.870Z,14.30
2018-02-09T04:04:05.034Z,14.30
2018-02-09T04:06:32.966Z,14.30
2018-02-09T04:09:00.130Z,14.30
2018-02-09T04:11:27.293Z,14.30
2018-02-09T04:13:54.459Z,14.30
2018-02-09T04:16:22.391Z,14.40
2018-02-09T04:18:49.558Z,14.40
2018-02-09T04:21:16.725Z,14.50
2018-02-09T04:23:43.894Z,14.50
2018-02-09T04:26:11.821Z,14.50
2018-02-09T04:28:38.985Z,14.50
2018-02-09T04:31:06.194Z,14.50
2018-02-09T04:33:33.397Z,14.50
2018-02-09T04:36:00.558Z,14.40
2018-02-09T04:38:28.531Z,14.40
2018-02-09T04:40:56.471Z,14.40
2018-02-09T04:43:23.633Z,14.40
2018-02-09T04:45:50.798Z,14.40
2018-02-09T04:48:18.734Z,14.40
2018-02-09T04:50:45.902Z,14.40
2018-02-09T04:53:13.106Z,14.40
2018-02-09T04:55:40.274Z,14.30
2018-02-09T04:58:07.473Z,14.30
2018-02-09T05:00:34.637Z,14.40
2018-02-09T05:03:02.566Z,14.30
2018-02-09T05:05:29.737Z,14.30
2018-02-09T05:07:56.941Z,14.30
2018-02-09T05:10:24.105Z,14.30
2018-02-09T05:12:51.305Z,14.30
2018-02-09T05:15:19.274Z,14.30
2018-02-09T05:17:47.986Z,14.30
2018-02-09T05:20:15.190Z,14.30
2018-02-09T05:22:42.353Z,14.30
2018-02-09T05:25:09.554Z,14.20
2018-02-09T05:27:36.721Z,14.20
2018-02-09T05:30:03.922Z,14.20
2018-02-09T05:32:31.856Z,14.30
2018-02-09T05:34:59.026Z,14.30
2018-02-09T05:37:26.229Z,14.30
2018-02-09T05:39:53.396Z,14.30
2018-02-09T05:42:20.597Z,14.30
2018-02-09T05:44:48.553Z,14.30
2018-02-09T05:47:15.766Z,14.30
2018-02-09T05:49:42.942Z,14.30
2018-02-09T05:52:10.460Z,14.30
2018-02-09T05:54:37.633Z,14.30
2018-02-09T05:57:04.887Z,14.20
2018-02-09T05:59:32.093Z,14.30
2018-02-09T06:02:00.027Z,14.50
2018-02-09T06:04:27.310Z,14.50
2018-02-09T06:06:54.515Z,14.50
2018-02-09T06:09:21.767Z,14.50
2018-02-09T06:11:49.059Z,14.50
2018-02-09T06:14:16.221Z,14.50
2018-02-09T06:16:43.384Z,14.50
2018-02-09T06:19:11.318Z,14.50
2018-02-09T06:21:38.484Z,14.50
2018-02-09T06:24:05.654Z,14.50
2018-02-09T06:26:34.494Z,14.50
2018-02-09T06:29:01.660Z,14.50
2018-02-09T06:31:28.859Z,14.40
2018-02-09T06:33:56.794Z,14.40
2018-02-09T06:36:24.022Z,14.40
2018-02-09T06:38:51.186Z,14.40
2018-02-09T06:41:18.358Z,14.30
2018-02-09T06:43:45.525Z,14.30
2018-02-09T06:46:13.457Z,14.30
2018-02-09T06:48:40.625Z,14.30
2018-02-09T06:51:07.830Z,14.30
2018-02-09T06:53:35.002Z,14.20
2018-02-09T06:56:02.166Z,14.20
2018-02-09T06:58:30.053Z,14.20
2018-02-09T07:00:57.301Z,14.20
2018-02-09T07:03:24.465Z,14.20
2018-02-09T07:05:52.401Z,14.20
2018-02-09T07:08:19.569Z,14.20
2018-02-09T07:10:46.737Z,14.20
2018-02-09T07:13:14.666Z,14.20
2018-02-09T07:15:41.865Z,14.20
2018-02-09T07:18:09.794Z,14.20
2018-02-09T07:20:37.738Z,14.20
2018-02-09T07:23:04.901Z,14.30
2018-02-09T07:25:32.065Z,14.40
2018-02-09T07:27:59.278Z,14.40
2018-02-09T07:30:26.441Z,14.50
2018-02-09T07:32:53.624Z,14.50
2018-02-09T07:35:20.789Z,14.50
2018-02-09T07:37:47.955Z,14.50
2018-02-09T07:40:15.118Z,14.50
2018-02-09T07:42:43.046Z,14.50
2018-02-09T07:45:10.210Z,14.50
2018-02-09T07:47:37.378Z,14.50
2018-02-09T07:50:04.549Z,14.40
2018-02-09T07:52:32.477Z,14.40
2018-02-09T07:54:59.649Z,14.40
2018-02-09T07:57:26.813Z,14.40
2018-02-09T07:59:54.745Z,14.40
2018-02-09T08:02:21.910Z,14.40
2018-02-09T08:04:49.110Z,14.40
2018-02-09T08:07:16.269Z,14.40
2018-02-09T08:09:43.461Z,14.40
2018-02-09T08:12:10.629Z,14.40
2018-02-09T08:14:37.832Z,14.40
2018-02-09T08:17:05.919Z,14.40
2018-02-09T08:19:33.121Z,14.30
2018-02-09T08:22:01.049Z,14.20
2018-02-09T08:24:28.388Z,14.20
2018-02-09T08:26:55.569Z,14.30
2018-02-09T08:29:22.734Z,14.30
2018-02-09T08:31:50.669Z,14.50
2018-02-09T08:34:17.834Z,14.50
2018-02-09T08:36:45.006Z,14.50
2018-02-09T08:39:12.943Z,14.60
2018-02-09T08:41:40.114Z,14.50
2018-02-09T08:44:07.333Z,14.60
2018-02-09T08:46:34.506Z,14.50
2018-02-09T08:49:01.691Z,14.50
2018-02-09T08:51:29.628Z,14.50
2018-02-09T08:53:56.794Z,14.40
2018-02-09T08:56:23.997Z,14.50
2018-02-09T08:58:51.170Z,14.50
2018-02-09T09:01:18.375Z,14.50
2018-02-09T09:03:46.429Z,14.50
2018-02-09T09:06:13.636Z,14.50
2018-02-09T09:08:40.825Z,14.50
2018-02-09T09:11:08.078Z,14.50
2018-02-09T09:13:35.245Z,14.50
2018-02-09T09:16:03.205Z,14.40
2018-02-09T09:18:30.430Z,14.40
2018-02-09T09:20:57.599Z,14.40
2018-02-09T09:23:24.768Z,14.40
2018-02-09T09:25:52.729Z,14.40
2018-02-09T09:28:19.897Z,14.40
2018-02-09T09:30:47.829Z,14.30
2018-02-09T09:33:15.034Z,14.30
2018-02-09T09:35:42.490Z,14.30
2018-02-09T09:38:10.425Z,14.30
2018-02-09T09:40:37.628Z,14.30
2018-02-09T09:43:04.795Z,14.30
2018-02-09T09:45:31.963Z,14.30
2018-02-09T09:47:59.131Z,14.30
2018-02-09T09:50:26.319Z,14.30
2018-02-09T09:52:53.485Z,14.30
2018-02-09T09:55:20.701Z,14.30
2018-02-09T09:57:48.633Z,14.10
2018-02-09T10:00:15.805Z,14.10
2018-02-09T10:02:42.996Z,14.20
2018-02-09T10:05:10.161Z,14.20
2018-02-09T10:07:37.360Z,14.30
2018-02-09T10:10:04.634Z,14.40
2018-02-09T10:12:32.578Z,14.50
2018-02-09T10:14:59.785Z,14.50
2018-02-09T10:17:26.944Z,14.40
2018-02-09T10:19:54.145Z,14.50
2018-02-09T10:22:21.315Z,14.40
2018-02-09T10:24:49.289Z,14.40
2018-02-09T10:27:17.233Z,14.40
2018-02-09T10:29:44.401Z,14.40
2018-02-09T10:32:12.369Z,14.40
2018-02-09T10:34:40.309Z,14.40
2018-02-09T10:37:08.790Z,14.40
2018-02-09T10:39:35.956Z,14.30
2018-02-09T10:42:03.133Z,14.30
2018-02-09T10:44:31.061Z,14.20
2018-02-09T10:46:58.229Z,14.10
2018-02-09T10:49:25.388Z,14.10
2018-02-09T10:51:52.558Z,14.20
2018-02-09T10:54:20.485Z,14.20
2018-02-09T10:56:48.458Z,14.20
2018-02-09T10:59:15.691Z,14.10
2018-02-09T11:01:42.859Z,14.20
2018-02-09T11:04:10.025Z,14.20
2018-02-09T11:06:37.189Z,14.30
2018-02-09T11:09:04.362Z,14.30
2018-02-09T11:11:32.334Z,14.30
2018-02-09T11:13:59.525Z,14.30
2018-02-09T11:16:26.693Z,14.30
2018-02-09T11:18:53.929Z,14.30
2018-02-09T11:21:21.183Z,14.30
2018-02-09T11:23:48.363Z,14.40
2018-02-09T11:26:15.533Z,14.30
2018-02-09T11:28:43.497Z,14.30
2018-02-09T11:31:11.438Z,14.30
2018-02-09T11:33:38.613Z,14.30
2018-02-09T11:36:06.550Z,14.20
2018-02-09T11:38:33.713Z,14.30
2018-02-09T11:41:00.904Z,14.30
2018-02-09T11:43:28.176Z,14.20
2018-02-09T11:45:55.349Z,14.30
2018-02-09T11:48:22.557Z,14.30
2018-02-09T11:50:50.601Z,14.30
2018-02-09T11:53:17.901Z,14.30
2018-02-09T11:55:45.061Z,14.30
2018-02-09T11:58:12.245Z,14.40
2018-02-09T12:00:39.414Z,14.50
2018-02-09T12:03:06.580Z,14.60
2018-02-09T12:05:34.554Z,14.50
2018-02-09T12:08:02.489Z,14.50
2018-02-09T12:10:29.656Z,14.40
2018-02-09T12:12:56.839Z,14.40
2018-02-09T12:15:24.772Z,14.40
2018-02-09T12:17:51.942Z,14.40
2018-02-09T12:20:19.886Z,14.40
2018-02-09T12:22:47.058Z,14.40
2018-02-09T12:25:14.233Z,14.30
2018-02-09T12:27:42.170Z,14.40
2018-02-09T12:30:09.334Z,14.40
2018-02-09T12:32:36.577Z,14.40
2018-02-09T12:35:03.845Z,14.40
2018-02-09T12:37:31.813Z,14.40
2018-02-09T12:39:59.748Z,14.40
2018-02-09T12:42:26.953Z,14.40
2018-02-09T12:44:54.885Z,14.40
2018-02-09T12:47:22.053Z,14.30
2018-02-09T12:49:49.224Z,14.30
2018-02-09T12:52:17.154Z,14.40
2018-02-09T12:54:44.316Z,14.40
2018-02-09T12:57:12.049Z,14.50
2018-02-09T12:59:39.335Z,14.60
2018-02-09T13:02:06.597Z,14.60
2018-02-09T13:04:34.576Z,14.50
2018-02-09T13:07:02.742Z,14.50
2018-02-09T13:09:30.746Z,14.40
2018-02-09T13:11:57.947Z,14.40
2018-02-09T13:14:31.157Z,14.40
2018-02-09T13:16:59.098Z,14.30
2018-02-09T13:19:27.038Z,14.30
2018-02-09T13:21:54.209Z,14.30
2018-02-09T13:24:24.330Z,14.40
2018-02-09T13:26:51.493Z,14.40
2018-02-09T13:29:19.749Z,14.40
2018-02-09T13:31:46.912Z,14.40
2018-02-09T13:34:14.153Z,14.40
2018-02-09T13:37:02.122Z,14.30
2018-02-09T13:39:29.293Z,14.40
2018-02-09T13:41:57.227Z,14.30
2018-02-09T13:44:24.385Z,14.30
2018-02-09T13:46:51.549Z,14.30
2018-02-09T13:49:18.712Z,14.20
2018-02-09T13:51:45.940Z,14.30
2018-02-09T13:54:13.138Z,14.30
2018-02-09T13:56:41.065Z,14.30
2018-02-09T13:59:08.226Z,14.30
2018-02-09T14:01:35.394Z,14.30
2018-02-09T14:04:03.340Z,14.30
2018-02-09T14:06:30.506Z,14.30
2018-02-09T14:08:57.664Z,14.30
2018-02-09T14:11:24.840Z,14.30
2018-02-09T14:13:52.001Z,14.30
2018-02-09T14:16:19.177Z,14.30
2018-02-09T14:18:46.342Z,14.30
2018-02-09T14:21:13.539Z,14.20
2018-02-09T14:23:41.473Z,14.30
2018-02-09T14:26:08.638Z,14.30
2018-02-09T14:28:36.628Z,14.30
2018-02-09T14:31:04.559Z,14.30
2018-02-09T14:33:31.726Z,14.20
2018-02-09T14:35:58.897Z,14.20
2018-02-09T14:38:26.829Z,14.30
2018-02-09T14:40:53.993Z,14.30
2018-02-09T14:43:21.159Z,14.50
2018-02-09T14:45:49.098Z,14.60
2018-02-09T14:48:16.265Z,14.60
2018-02-09T14:50:43.429Z,14.70
2018-02-09T14:53:10.595Z,14.70
2018-02-09T14:55:38.531Z,14.60
2018-02-09T14:58:05.699Z,14.60
2018-02-09T15:00:32.869Z,14.60
2018-02-09T15:03:00.839Z,14.60
2018-02-09T15:05:28.784Z,14.50
2018-02-09T15:07:55.969Z,14.50
2018-02-09T15:10:23.141Z,14.50
2018-02-09T15:12:50.306Z,14.50
2018-02-09T15:15:17.486Z,14.50
2018-02-09T15:17:44.650Z,14.60
2018-02-09T15:20:12.581Z,14.60
2018-02-09T15:22:39.747Z,14.50
2018-02-09T15:25:06.913Z,14.60
2018-02-09T15:27:34.087Z,14.50
2018-02-09T15:30:02.949Z,14.60
2018-02-09T15:32:30.118Z,14.60
2018-02-09T15:34:58.088Z,14.60
2018-02-09T15:37:26.017Z,14.60
2018-02-09T15:39:53.186Z,14.60
2018-02-09T15:42:20.350Z,14.60
2018-02-09T15:44:47.518Z,14.60
2018-02-09T15:47:15.736Z,14.60
2018-02-09T15:49:42.902Z,14.60
2018-02-09T15:52:10.073Z,14.60
2018-02-09T15:54:37.242Z,14.60
2018-02-09T15:57:05.178Z,14.60
2018-02-09T15:59:33.112Z,14.60
2018-02-09T16:02:00.314Z,14.60
2018-02-09T16:04:27.477Z,14.60
2018-02-09T16:06:54.645Z,14.60
2018-02-09T16:09:23.482Z,14.50
2018-02-09T16:11:50.646Z,14.50
2018-02-09T16:14:17.815Z,14.50
2018-02-09T16:16:44.985Z,14.50
2018-02-09T16:19:12.920Z,14.50
2018-02-09T16:21:40.086Z,14.50
2018-02-09T16:24:07.258Z,14.50
2018-02-09T16:26:35.193Z,14.50
2018-02-09T16:29:03.122Z,14.50
2018-02-09T16:31:30.295Z,14.50
2018-02-09T16:33:57.458Z,14.60
2018-02-09T16:36:24.618Z,14.70
2018-02-09T16:38:51.793Z,14.70
2018-02-09T16:41:19.725Z,14.80
2018-02-09T16:43:46.937Z,14.80
2018-02-09T16:46:14.103Z,14.80
2018-02-09T16:48:41.269Z,14.80
2018-02-09T16:51:08.443Z,14.80
2018-02-09T16:53:35.610Z,14.80
2018-02-09T16:56:02.785Z,14.80
2018-02-09T16:58:30.717Z,14.80
2018-02-09T17:00:57.883Z,14.80
2018-02-09T17:03:25.046Z,14.70
2018-02-09T17:05:52.981Z,14.70
2018-02-09T17:08:20.150Z,14.70
2018-02-09T17:10:48.102Z,14.70
2018-02-09T17:13:15.268Z,14.70
2018-02-09T17:15:42.484Z,14.70
2018-02-09T17:18:09.641Z,14.70
2018-02-09T17:20:36.852Z,14.70
2018-02-09T17:23:04.786Z,14.70
2018-02-09T17:25:31.949Z,14.70
2018-02-09T17:27:59.114Z,14.70
2018-02-09T17:30:27.042Z,14.60
2018-02-09T17:32:54.223Z,14.60
2018-02-09T17:35:21.389Z,14.70
2018-02-09T17:37:49.321Z,14.70
2018-02-09T17:40:17.342Z,14.70
2018-02-09T17:42:44.516Z,14.70
2018-02-09T17:45:11.686Z,14.70
2018-02-09T17:47:38.858Z,14.70
2018-02-09T17:50:06.021Z,14.70
2018-02-09T17:52:33.184Z,14.70
2018-02-09T17:55:01.114Z,14.70
2018-02-09T17:57:28.389Z,14.70
2018-02-09T17:59:55.608Z,14.60
2018-02-09T18:02:22.952Z,14.60
2018-02-09T18:04:50.117Z,14.70
2018-02-09T18:09:55.940Z,14.70
2018-02-09T18:12:23.942Z,14.80
2018-02-09T18:14:51.351Z,14.80
2018-02-09T18:17:18.722Z,14.90
2018-02-09T18:19:46.847Z,14.90
2018-02-09T18:22:14.008Z,14.90
2018-02-09T18:24:41.173Z,14.90
2018-02-09T18:27:08.345Z,14.90
2018-02-09T18:29:35.553Z,14.80
2018-02-09T18:32:02.720Z,14.90
2018-02-09T18:34:29.890Z,14.90
2018-02-09T18:36:57.048Z,14.80
2018-02-09T18:39:24.218Z,14.80
2018-02-09T18:41:52.150Z,14.80
2018-02-09T18:44:19.314Z,14.80
2018-02-09T18:46:46.481Z,14.80
2018-02-09T18:49:14.422Z,14.80
2018-02-09T18:51:41.587Z,14.80
2018-02-09T18:54:08.765Z,14.80
2018-02-09T18:56:36.693Z,14.70
2018-02-09T18:59:03.863Z,14.70
2018-02-09T19:01:31.026Z,14.70
2018-02-09T19:03:58.975Z,14.70
2018-02-09T19:06:26.151Z,14.70
2018-02-09T19:08:54.090Z,14.70
2018-02-09T19:11:22.286Z,14.70
2018-02-09T19:13:49.453Z,14.70
2018-02-09T19:16:17.398Z,14.70
2018-02-09T19:18:44.749Z,14.70
2018-02-09T19:21:11.926Z,14.70
2018-02-09T19:23:39.867Z,14.70
2018-02-09T19:26:07.057Z,14.70
2018-02-09T19:28:34.995Z,14.70
2018-02-09T19:31:02.176Z,14.70
2018-02-09T19:33:31.142Z,14.70
2018-02-09T19:35:59.227Z,14.60
2018-02-09T19:38:27.253Z,14.60
2018-02-09T19:40:54.426Z,14.60
2018-02-09T19:43:21.599Z,14.60
2018-02-09T19:45:48.774Z,14.60
2018-02-09T19:48:16.708Z,14.60
2018-02-09T19:50:43.963Z,14.60
2018-02-09T19:53:11.704Z,14.60
2018-02-09T19:55:38.882Z,14.60
2018-02-09T19:58:06.048Z,14.60
2018-02-09T20:00:33.986Z,14.60
2018-02-09T20:03:01.149Z,14.60
2018-02-09T20:05:28.734Z,14.60
2018-02-09T20:07:56.757Z,14.80
2018-02-09T20:10:24.006Z,14.80
2018-02-09T20:12:51.175Z,14.90
2018-02-09T20:15:18.405Z,14.90
2018-02-09T20:17:45.578Z,14.90
2018-02-09T20:20:12.808Z,14.80
2018-02-09T20:22:39.968Z,14.80
2018-02-09T20:25:07.144Z,14.80
2018-02-09T20:27:34.397Z,14.80
2018-02-09T20:30:02.335Z,14.70
2018-02-09T20:32:29.594Z,14.70
2018-02-09T20:34:56.814Z,14.70
2018-02-09T20:37:23.994Z,14.70
2018-02-09T20:39:51.282Z,14.60
2018-02-09T20:42:18.614Z,14.60
2018-02-09T20:44:45.967Z,14.60
2018-02-09T20:47:13.209Z,14.60
2018-02-09T20:49:40.375Z,14.60
2018-02-09T20:52:07.649Z,14.60
2018-02-09T20:54:35.905Z,14.70
2018-02-09T20:57:03.067Z,14.70
2018-02-09T20:59:31.046Z,14.70
2018-02-09T21:01:59.090Z,14.60
2018-02-09T21:04:26.341Z,14.60
2018-02-09T21:06:53.592Z,14.60
2018-02-09T21:09:21.563Z,14.60
2018-02-09T21:11:48.981Z,14.60
2018-02-09T21:14:16.257Z,14.70
2018-02-09T21:16:43.426Z,14.60
2018-02-09T21:19:10.676Z,14.60
2018-02-09T21:21:37.839Z,14.60
2018-02-09T21:24:05.059Z,14.60
2018-02-09T21:26:32.336Z,14.60
2018-02-09T21:28:59.726Z,14.60
2018-02-09T21:31:26.890Z,14.60
2018-02-09T21:33:54.193Z,14.60
2018-02-09T21:36:21.458Z,14.60
2018-02-09T21:38:48.625Z,14.60
2018-02-09T21:41:15.890Z,14.70
2018-02-09T21:43:43.054Z,14.70
2018-02-09T21:46:10.222Z,14.60
2018-02-09T21:48:38.848Z,14.60
2018-02-09T21:51:06.016Z,14.60
2018-02-09T21:53:33.259Z,14.60
2018-02-09T21:56:00.754Z,14.60
2018-02-09T21:58:28.093Z,14.60
2018-02-09T22:00:56.245Z,14.70
2018-02-09T22:03:24.156Z,14.70
2018-02-09T22:05:51.919Z,14.80
2018-02-09T22:08:20.441Z,14.90
2018-02-09T22:10:47.986Z,14.90
2018-02-09T22:13:16.014Z,14.80
2018-02-09T22:15:43.183Z,14.80
2018-02-09T22:18:11.129Z,14.90
2018-02-09T22:20:38.366Z,14.80
2018-02-09T22:23:05.613Z,14.90
2018-02-09T22:25:32.870Z,14.80
2018-02-09T22:28:00.040Z,14.80
2018-02-09T22:30:32.601Z,14.70
2018-02-09T22:32:59.848Z,14.70
2018-02-09T22:35:27.150Z,14.70
2018-02-09T22:37:54.322Z,14.80
2018-02-09T22:40:22.324Z,14.80
2018-02-09T22:42:49.578Z,14.70
2018-02-09T22:45:16.894Z,14.70
2018-02-09T22:47:45.450Z,14.70
2018-02-09T22:50:13.313Z,14.70
2018-02-09T22:52:40.513Z,14.70
2018-02-09T22:55:07.685Z,14.70
2018-02-09T22:57:35.367Z,14.70
2018-02-09T23:00:03.688Z,14.70
2018-02-09T23:02:32.042Z,14.70
2018-02-09T23:04:59.262Z,14.70
2018-02-09T23:07:26.445Z,14.70
2018-02-09T23:09:54.767Z,14.60
2018-02-09T23:12:22.148Z,14.60
2018-02-09T23:14:49.318Z,14.60
2018-02-09T23:17:16.482Z,14.70
2018-02-09T23:19:43.652Z,14.70
2018-02-09T23:22:11.657Z,14.70
2018-02-09T23:24:38.925Z,14.70
2018-02-09T23:27:06.173Z,14.60
2018-02-09T23:29:33.433Z,14.60
2018-02-09T23:32:00.685Z,14.70
2018-02-09T23:34:27.858Z,14.70
2018-02-09T23:36:55.062Z,14.70
2018-02-09T23:39:22.344Z,14.60
2018-02-09T23:41:49.553Z,14.60
2018-02-09T23:44:17.482Z,14.70
2018-02-09T23:46:44.720Z,14.70
2018-02-09T23:49:11.890Z,14.60
2018-02-09T23:51:39.050Z,14.70
2018-02-09T23:54:06.375Z,14.70
2018-02-09T23:56:33.541Z,14.80
2018-02-09T23:59:00.713Z,14.90
